Time;durP1;ratioP1;P1;durP2;ratioP2;P2;SDS_P1;SDS_P2;PMS_P1;PMS_P2;Temp;Humidity;BMP_temperature;BMP_pressure;BME280_temperature;BME280_humidity;BME280_pressure;Samples;Min_cycle;Max_cycle;Signal;HPM_P1;HPM_P2
2023/09/28 00:00:50;;;;;;;12.30;8.60;;;18.20;52.30;;;;;;5074943;28;20503;-60
2023/09/28 00:02:56;;;;;;;13.95;9.50;;;18.20;53.60;;;;;;5071637;28;20059;-60
2023/09/28 00:05:23;;;;;;;11.98;9.63;;;18.20;53.70;;;;;;5073569;28;20051;-60
2023/09/28 00:07:51;;;;;;;12.80;8.57;;;18.20;54.40;;;;;;5074844;28;20040;-60
2023/09/28 00:10:18;;;;;;;11.18;8.75;;;18.10;53.50;;;;;;5074740;28;20048;-60
2023/09/28 00:12:48;;;;;;;12.38;9.18;;;18.10;54.20;;;;;;5074882;28;20107;-61
2023/09/28 00:15:15;;;;;;;12.00;8.48;;;18.10;54.90;;;;;;5074654;28;20078;-60
2023/09/28 00:17:41;;;;;;;11.93;8.75;;;18.10;55.50;;;;;;5074272;28;20136;-60
2023/09/28 00:20:18;;;;;;;10.95;8.23;;;18.00;57.10;;;;;;5074561;28;20471;-61
2023/09/28 00:22:46;;;;;;;11.77;8.45;;;18.00;58.00;;;;;;5074383;28;20063;-60
2023/09/28 00:25:12;;;;;;;10.98;8.57;;;18.00;58.50;;;;;;5073613;28;20386;-61
2023/09/28 00:27:39;;;;;;;12.13;8.13;;;18.00;59.10;;;;;;5073501;28;20036;-60
2023/09/28 00:30:06;;;;;;;11.02;8.52;;;18.00;59.00;;;;;;5073391;28;20044;-61
2023/09/28 00:32:33;;;;;;;11.35;8.35;;;18.00;62.80;;;;;;5073202;28;20140;-61
2023/09/28 00:34:58;;;;;;;11.18;9.07;;;18.00;63.50;;;;;;5073374;28;20044;-61
2023/09/28 00:37:24;;;;;;;12.45;8.65;;;17.90;64.90;;;;;;5073348;28;20113;-60
2023/09/28 00:39:50;;;;;;;14.00;9.75;;;17.90;62.60;;;;;;5072962;28;20077;-61
2023/09/28 00:42:16;;;;;;;12.00;9.40;;;18.00;62.60;;;;;;5073182;28;20044;-60
2023/09/28 00:44:42;;;;;;;12.32;9.40;;;17.90;63.70;;;;;;5073100;28;20171;-58
2023/09/28 00:47:10;;;;;;;11.63;8.85;;;17.90;63.50;;;;;;5072950;28;20119;-60
2023/09/28 00:49:36;;;;;;;14.07;9.48;;;17.90;62.30;;;;;;5072823;28;20149;-60
2023/09/28 00:52:03;;;;;;;12.73;8.77;;;17.90;62.10;;;;;;5072862;28;20079;-62
2023/09/28 00:54:29;;;;;;;10.65;8.00;;;17.90;60.00;;;;;;5072878;28;20732;-60
2023/09/28 00:56:55;;;;;;;14.23;9.02;;;17.90;59.20;;;;;;5073042;28;20032;-60
2023/09/28 00:59:21;;;;;;;12.10;8.82;;;17.90;57.90;;;;;;5072717;28;20484;-60
2023/09/28 01:01:50;;;;;;;11.82;8.13;;;17.90;56.40;;;;;;5072843;28;20028;-60
2023/09/28 01:04:16;;;;;;;11.48;8.27;;;18.00;56.30;;;;;;5072743;28;20052;-60
2023/09/28 01:06:42;;;;;;;12.02;8.68;;;18.00;53.80;;;;;;5072860;28;20097;-60
2023/09/28 01:09:09;;;;;;;12.02;7.82;;;18.00;51.00;;;;;;5072757;28;20047;-59
2023/09/28 01:11:36;;;;;;;10.48;7.82;;;18.00;49.70;;;;;;5072725;28;20056;-60
2023/09/28 01:14:02;;;;;;;10.73;7.80;;;18.00;46.40;;;;;;5072856;28;20041;-60
2023/09/28 01:16:28;;;;;;;10.48;7.57;;;18.00;45.40;;;;;;5072570;28;20040;-60
2023/09/28 01:18:54;;;;;;;12.32;7.38;;;18.00;45.30;;;;;;5072717;28;20089;-60
2023/09/28 01:21:20;;;;;;;11.85;7.70;;;18.10;43.90;;;;;;5072700;28;20045;-61
2023/09/28 01:23:45;;;;;;;12.27;6.88;;;18.00;44.80;;;;;;5034284;28;1105364;-60
2023/09/28 01:26:11;;;;;;;11.27;7.65;;;18.00;44.50;;;;;;5073409;28;20080;-60
2023/09/28 01:28:38;;;;;;;9.88;7.28;;;18.00;45.70;;;;;;5072532;28;20044;-60
2023/09/28 01:31:04;;;;;;;12.52;7.13;;;18.00;46.70;;;;;;5073148;28;20485;-60
2023/09/28 01:33:30;;;;;;;9.63;7.00;;;18.00;46.50;;;;;;5073302;28;20123;-60
2023/09/28 01:35:56;;;;;;;11.27;7.07;;;18.00;46.50;;;;;;5073416;28;20040;-60
2023/09/28 01:38:44;;;;;;;10.27;7.13;;;17.90;46.90;;;;;;5073046;28;20458;-61
2023/09/28 01:41:11;;;;;;;11.07;6.72;;;17.90;46.70;;;;;;5073001;28;20428;-60
2023/09/28 01:43:37;;;;;;;10.60;6.88;;;17.90;48.30;;;;;;5072989;28;20079;-60
2023/09/28 01:46:03;;;;;;;9.00;6.85;;;17.90;50.20;;;;;;5073073;28;20064;-60
2023/09/28 01:48:29;;;;;;;9.43;6.78;;;17.80;50.30;;;;;;5072963;28;20060;-60
2023/09/28 01:50:54;;;;;;;12.77;7.53;;;17.80;50.80;;;;;;5072802;28;20040;-60
2023/09/28 01:53:20;;;;;;;10.85;6.90;;;17.80;51.40;;;;;;5072882;28;20047;-61
2023/09/28 01:55:47;;;;;;;10.75;7.18;;;17.80;51.70;;;;;;5072619;28;20525;-61
2023/09/28 01:58:13;;;;;;;13.05;6.97;;;17.70;53.50;;;;;;5072602;28;20087;-60
2023/09/28 02:00:39;;;;;;;11.68;7.45;;;17.70;54.70;;;;;;5072528;28;20078;-61
2023/09/28 02:03:05;;;;;;;10.55;7.60;;;17.70;54.50;;;;;;5072555;28;20041;-60
2023/09/28 02:05:34;;;;;;;10.70;7.20;;;17.60;56.00;;;;;;5054562;28;20044;-60
2023/09/28 02:08:02;;;;;;;10.57;6.90;;;17.60;55.40;;;;;;5072788;28;20036;-61
2023/09/28 02:10:28;;;;;;;12.35;7.28;;;17.60;56.50;;;;;;5071215;28;20036;-61
2023/09/28 02:12:55;;;;;;;10.55;7.43;;;17.60;57.30;;;;;;5072330;28;20044;-60
2023/09/28 02:15:22;;;;;;;10.68;7.45;;;17.60;57.80;;;;;;5071209;28;20082;-60
2023/09/28 02:17:49;;;;;;;11.20;7.53;;;17.60;59.10;;;;;;5072374;28;20489;-60
2023/09/28 02:20:16;;;;;;;10.90;7.50;;;17.60;59.10;;;;;;5072595;28;20036;-61
2023/09/28 02:22:46;;;;;;;10.20;7.57;;;17.50;62.20;;;;;;5072278;28;20390;-60
2023/09/28 02:25:18;;;;;;;9.95;7.55;;;17.50;63.80;;;;;;5072228;28;20386;-61
2023/09/28 02:27:48;;;;;;;11.18;6.78;;;17.50;64.80;;;;;;5072116;28;20037;-60
2023/09/28 02:30:17;;;;;;;11.52;7.38;;;17.40;64.50;;;;;;5072519;28;20075;-61
2023/09/28 02:32:43;;;;;;;11.82;7.70;;;17.40;67.60;;;;;;5072165;28;20072;-60
2023/09/28 02:35:11;;;;;;;10.90;7.32;;;17.40;71.30;;;;;;5070868;28;20051;-60
2023/09/28 02:37:37;;;;;;;11.02;7.43;;;17.30;71.40;;;;;;5072402;28;20036;-60
2023/09/28 02:40:07;;;;;;;11.63;7.53;;;17.30;73.50;;;;;;5071811;28;20473;-61
2023/09/28 02:42:35;;;;;;;10.82;7.80;;;17.20;75.30;;;;;;5072307;28;20040;-60
2023/09/28 02:45:02;;;;;;;11.85;7.70;;;17.30;76.90;;;;;;5072072;28;20033;-60
2023/09/28 02:47:29;;;;;;;10.70;7.03;;;17.20;77.30;;;;;;5072283;28;20136;-60
2023/09/28 02:49:54;;;;;;;9.40;7.05;;;17.20;79.20;;;;;;5072148;28;20040;-60
2023/09/28 02:52:20;;;;;;;10.15;7.00;;;17.20;80.10;;;;;;5071894;28;20056;-60
2023/09/28 02:54:46;;;;;;;10.85;7.45;;;17.20;81.10;;;;;;5072057;28;20052;-65
2023/09/28 02:57:12;;;;;;;10.18;7.55;;;17.20;81.40;;;;;;5072065;28;20097;-60
2023/09/28 02:59:38;;;;;;;10.45;7.15;;;17.10;83.40;;;;;;5071966;28;20082;-60
2023/09/28 03:02:05;;;;;;;11.00;7.38;;;17.10;82.40;;;;;;5071926;28;20420;-60
2023/09/28 03:04:33;;;;;;;10.32;6.85;;;17.10;83.00;;;;;;5071838;28;20037;-60
2023/09/28 03:07:00;;;;;;;10.45;6.72;;;17.10;83.20;;;;;;5071790;28;20040;-60
2023/09/28 03:09:26;;;;;;;13.30;7.40;;;17.00;90.00;;;;;;5071967;28;20071;-61
2023/09/28 03:11:53;;;;;;;9.48;6.97;;;17.00;90.30;;;;;;5071898;28;20041;-60
2023/09/28 03:14:20;;;;;;;10.80;7.40;;;17.10;91.90;;;;;;5071703;28;20078;-60
2023/09/28 03:16:45;;;;;;;12.05;7.03;;;17.00;92.70;;;;;;5071738;28;20051;-60
2023/09/28 03:19:11;;;;;;;9.35;6.90;;;17.00;93.00;;;;;;5071748;28;20049;-60
2023/09/28 03:21:39;;;;;;;10.23;7.57;;;17.00;94.10;;;;;;5071848;28;20107;-61
2023/09/28 03:24:08;;;;;;;10.82;6.53;;;17.00;94.50;;;;;;5071458;28;20045;-60
2023/09/28 03:26:33;;;;;;;10.88;7.40;;;16.90;94.90;;;;;;5070315;28;20080;-60
2023/09/28 03:28:59;;;;;;;12.05;7.47;;;16.90;97.70;;;;;;5071834;28;20075;-60
2023/09/28 03:31:29;;;;;;;10.85;7.05;;;16.90;98.10;;;;;;5071530;28;20040;-61
2023/09/28 03:33:55;;;;;;;11.25;6.93;;;16.90;99.90;;;;;;5071914;28;20044;-60
2023/09/28 03:36:21;;;;;;;10.55;7.43;;;16.80;99.90;;;;;;5071758;28;20507;-60
2023/09/28 03:38:47;;;;;;;11.15;8.10;;;16.80;99.90;;;;;;5071702;28;20036;-60
2023/09/28 03:41:13;;;;;;;10.88;7.40;;;16.80;99.90;;;;;;5071759;28;20045;-61
2023/09/28 03:43:39;;;;;;;12.52;6.88;;;16.80;99.90;;;;;;5071537;28;20037;-61
2023/09/28 03:46:05;;;;;;;12.38;7.80;;;16.80;99.90;;;;;;5071452;28;20094;-60
2023/09/28 03:48:30;;;;;;;11.05;7.55;;;16.70;99.90;;;;;;5071674;28;20052;-60
2023/09/28 03:50:57;;;;;;;10.27;7.65;;;16.80;99.90;;;;;;5071347;28;20488;-60
2023/09/28 03:53:22;;;;;;;12.30;7.38;;;16.80;99.90;;;;;;5074504;28;20041;-60
2023/09/28 03:55:49;;;;;;;10.30;7.25;;;16.70;99.90;;;;;;5075206;28;20048;-60
2023/09/28 03:58:15;;;;;;;11.38;7.82;;;16.70;99.90;;;;;;5073639;28;20054;-60
2023/09/28 04:00:41;;;;;;;11.18;7.53;;;16.70;99.90;;;;;;5075009;28;20036;-60
2023/09/28 04:03:07;;;;;;;12.57;7.78;;;16.70;99.90;;;;;;5074783;28;20393;-60
2023/09/28 04:05:33;;;;;;;13.45;7.80;;;16.70;99.90;;;;;;5073769;28;20109;-60
2023/09/28 04:07:59;;;;;;;12.30;7.80;;;16.70;99.90;;;;;;5074819;28;20837;-60
2023/09/28 04:10:25;;;;;;;11.80;8.15;;;16.60;99.90;;;;;;5074777;28;20178;-60
2023/09/28 04:12:52;;;;;;;10.48;7.47;;;16.60;99.90;;;;;;5073443;28;20040;-60
2023/09/28 04:15:17;;;;;;;10.38;7.97;;;16.60;99.90;;;;;;5074915;28;20041;-60
2023/09/28 04:17:43;;;;;;;12.88;7.85;;;16.60;99.90;;;;;;5074872;28;20393;-60
2023/09/28 04:20:10;;;;;;;12.57;7.65;;;16.50;99.90;;;;;;5073273;28;20091;-60
2023/09/28 04:22:35;;;;;;;11.60;7.82;;;16.50;99.90;;;;;;5074331;28;20052;-59
2023/09/28 04:25:03;;;;;;;12.85;8.30;;;16.50;99.90;;;;;;5074856;28;20049;-60
2023/09/28 04:27:29;;;;;;;13.70;8.82;;;16.40;99.90;;;;;;5074400;28;20058;-60
2023/09/28 04:29:55;;;;;;;13.68;8.18;;;16.40;99.90;;;;;;5074262;28;20040;-60
2023/09/28 04:32:20;;;;;;;15.70;9.25;;;16.40;99.90;;;;;;5074325;28;20037;-60
2023/09/28 04:34:46;;;;;;;11.68;8.25;;;16.30;99.90;;;;;;5074477;28;20040;-60
2023/09/28 04:37:12;;;;;;;14.77;8.48;;;16.30;99.90;;;;;;5073322;28;20048;-61
2023/09/28 04:39:38;;;;;;;14.52;8.23;;;16.30;99.90;;;;;;5074313;28;20037;-60
2023/09/28 04:42:04;;;;;;;12.32;8.07;;;16.20;99.90;;;;;;5074267;28;20041;-60
2023/09/28 04:44:30;;;;;;;13.50;8.23;;;16.30;99.90;;;;;;5074204;28;20089;-60
2023/09/28 04:46:56;;;;;;;14.50;9.38;;;16.30;99.90;;;;;;5072845;28;20066;-60
2023/09/28 04:49:22;;;;;;;13.13;8.20;;;16.30;99.90;;;;;;5073940;28;20036;-60
2023/09/28 04:51:47;;;;;;;13.82;8.38;;;16.30;99.90;;;;;;5074031;28;20416;-60
2023/09/28 04:54:14;;;;;;;11.98;8.35;;;16.30;99.90;;;;;;5074039;28;20045;-60
2023/09/28 04:56:41;;;;;;;12.75;7.95;;;16.40;99.90;;;;;;5074004;28;20040;-61
2023/09/28 04:59:06;;;;;;;13.80;7.72;;;16.40;99.90;;;;;;5073754;28;20047;-60
2023/09/28 05:01:33;;;;;;;13.10;7.20;;;16.50;99.90;;;;;;5074101;28;20036;-60
2023/09/28 05:03:59;;;;;;;13.55;7.50;;;16.60;99.90;;;;;;5072580;28;20037;-61
2023/09/28 05:06:24;;;;;;;11.52;7.78;;;16.50;99.90;;;;;;5073917;28;20419;-60
2023/09/28 05:08:50;;;;;;;14.80;6.72;;;16.60;99.90;;;;;;5072568;28;20044;-60
2023/09/28 05:11:16;;;;;;;11.02;6.78;;;16.60;99.90;;;;;;5073616;28;20132;-60
2023/09/28 05:13:42;;;;;;;12.05;6.55;;;16.60;99.90;;;;;;5073331;28;20474;-60
2023/09/28 05:16:08;;;;;;;12.20;6.43;;;16.60;99.90;;;;;;5073306;28;20048;-60
2023/09/28 05:18:35;;;;;;;13.10;6.43;;;16.60;99.90;;;;;;5073354;28;20033;-61
2023/09/28 05:21:01;;;;;;;12.50;7.00;;;16.50;99.90;;;;;;5073392;28;20039;-60
2023/09/28 05:23:26;;;;;;;13.38;6.63;;;16.50;99.90;;;;;;5073161;28;20123;-61
2023/09/28 05:25:52;;;;;;;13.82;6.47;;;16.50;99.90;;;;;;5073454;28;20040;-60
2023/09/28 05:28:18;;;;;;;14.68;7.20;;;16.40;99.90;;;;;;5073345;28;20044;-60
2023/09/28 05:30:43;;;;;;;13.60;6.85;;;16.50;99.90;;;;;;5073483;28;20097;-60
2023/09/28 05:33:09;;;;;;;13.48;8.15;;;16.40;99.90;;;;;;5073108;28;20602;-60
2023/09/28 05:35:35;;;;;;;14.43;6.97;;;16.40;99.90;;;;;;5073151;28;20048;-60
2023/09/28 05:38:02;;;;;;;11.50;6.28;;;16.40;99.90;;;;;;5073180;28;20032;-60
2023/09/28 05:40:27;;;;;;;15.63;6.70;;;16.30;99.90;;;;;;5073120;28;20040;-60
2023/09/28 05:42:53;;;;;;;10.18;6.03;;;16.30;99.90;;;;;;5073029;28;20045;-60
2023/09/28 05:45:19;;;;;;;14.88;6.03;;;16.30;99.90;;;;;;5072985;28;20512;-60
2023/09/28 05:47:44;;;;;;;16.75;5.93;;;16.30;99.90;;;;;;5071540;28;20040;-61
2023/09/28 05:50:13;;;;;;;13.82;5.85;;;16.30;99.90;;;;;;5073015;28;20076;-60
2023/09/28 05:52:39;;;;;;;12.32;5.18;;;16.30;99.90;;;;;;5071494;28;20127;-60
2023/09/28 05:55:06;;;;;;;13.25;6.18;;;16.30;99.90;;;;;;5072873;28;20040;-60
2023/09/28 05:57:32;;;;;;;13.40;5.60;;;16.30;99.90;;;;;;5071244;28;20506;-58
2023/09/28 05:59:58;;;;;;;12.57;5.68;;;16.20;99.90;;;;;;5072570;28;20056;-60
2023/09/28 06:02:24;;;;;;;10.57;4.97;;;16.30;99.90;;;;;;5071612;28;20393;-60
2023/09/28 06:04:50;;;;;;;14.23;4.65;;;16.20;99.90;;;;;;5072726;28;20513;-60
2023/09/28 06:07:15;;;;;;;11.73;4.75;;;16.30;99.90;;;;;;5072680;28;20051;-60
2023/09/28 06:09:41;;;;;;;16.95;4.97;;;16.30;99.90;;;;;;5072734;28;20431;-59
2023/09/28 06:12:07;;;;;;;18.20;5.18;;;16.30;99.90;;;;;;5072437;28;20066;-60
2023/09/28 06:14:36;;;;;;;14.68;3.90;;;16.30;99.90;;;;;;5071953;28;20427;-60
2023/09/28 06:17:01;;;;;;;16.85;4.20;;;16.30;99.90;;;;;;5072649;28;20392;-60
2023/09/28 06:19:27;;;;;;;13.88;3.40;;;16.30;99.90;;;;;;5072448;28;20040;-61
2023/09/28 06:21:59;;;;;;;13.88;3.22;;;16.30;99.90;;;;;;5072569;28;20029;-59
2023/09/28 06:24:25;;;;;;;16.40;3.35;;;16.30;99.90;;;;;;5071980;28;20057;-60
2023/09/28 06:26:51;;;;;;;20.13;3.78;;;16.30;99.90;;;;;;5072517;28;20040;-60
2023/09/28 06:29:16;;;;;;;17.08;3.08;;;16.40;99.90;;;;;;5072312;28;20396;-61
2023/09/28 06:31:42;;;;;;;24.67;3.42;;;16.40;99.90;;;;;;5072318;28;20048;-60
2023/09/28 06:34:08;;;;;;;20.60;3.55;;;16.40;99.90;;;;;;5072243;28;20503;-60
2023/09/28 06:36:34;;;;;;;17.63;3.78;;;16.40;99.90;;;;;;5072211;28;20501;-60
2023/09/28 06:39:00;;;;;;;18.73;3.83;;;16.40;99.90;;;;;;5071991;28;20044;-60
2023/09/28 06:41:26;;;;;;;17.67;3.10;;;16.40;99.90;;;;;;5072071;28;20119;-60
2023/09/28 06:43:51;;;;;;;18.75;3.63;;;16.40;99.90;;;;;;5072218;28;20048;-60
2023/09/28 06:46:17;;;;;;;16.75;4.00;;;16.40;99.90;;;;;;5072008;28;20043;-60
2023/09/28 06:48:45;;;;;;;19.45;3.20;;;16.40;99.90;;;;;;5072113;28;20078;-60
2023/09/28 06:51:11;;;;;;;16.65;3.72;;;16.50;98.80;;;;;;5071931;28;20044;-60
2023/09/28 06:53:38;;;;;;;21.02;3.30;;;16.50;97.60;;;;;;5071927;28;20499;-60
2023/09/28 06:56:04;;;;;;;19.42;3.65;;;16.50;96.30;;;;;;5070738;28;20119;-60
2023/09/28 06:58:30;;;;;;;16.10;3.08;;;16.50;93.00;;;;;;5071934;28;20059;-60
2023/09/28 07:00:58;;;;;;;20.77;4.05;;;16.60;91.50;;;;;;5071943;28;20119;-60
2023/09/28 07:03:24;;;;;;;23.67;3.75;;;16.80;84.70;;;;;;5072146;28;20051;-60
2023/09/28 07:05:49;;;;;;;21.15;3.60;;;16.80;73.60;;;;;;5072184;28;20045;-60
2023/09/28 07:08:15;;;;;;;17.73;3.28;;;16.90;67.00;;;;;;5070804;28;20113;-60
2023/09/28 07:10:42;;;;;;;21.90;4.07;;;17.00;70.80;;;;;;5071997;28;20043;-60
2023/09/28 07:13:07;;;;;;;17.10;4.32;;;17.10;69.30;;;;;;5071766;28;20079;-60
2023/09/28 07:15:36;;;;;;;19.02;3.40;;;17.10;59.80;;;;;;5070693;28;20072;-60
2023/09/28 07:18:03;;;;;;;19.63;3.97;;;17.10;59.50;;;;;;5071625;28;20076;-61
2023/09/28 07:20:29;;;;;;;26.40;3.67;;;17.10;58.60;;;;;;5071767;28;20071;-60
2023/09/28 07:22:55;;;;;;;25.02;3.80;;;17.10;56.10;;;;;;5071495;28;20489;-60
2023/09/28 07:25:20;;;;;;;27.95;4.63;;;17.10;57.40;;;;;;5071557;28;20087;-60
2023/09/28 07:27:50;;;;;;;25.35;5.32;;;17.20;57.30;;;;;;5073815;28;20128;-60
2023/09/28 07:30:19;;;;;;;17.15;3.50;;;17.20;58.30;;;;;;5075458;28;20048;-60
2023/09/28 07:32:45;;;;;;;19.63;3.35;;;17.20;57.90;;;;;;5075669;28;20119;-60
2023/09/28 07:35:11;;;;;;;16.60;3.60;;;17.20;57.60;;;;;;5075299;28;20094;-60
2023/09/28 07:37:41;;;;;;;24.95;3.95;;;17.20;54.00;;;;;;5075490;28;20041;-60
2023/09/28 07:40:12;;;;;;;16.52;2.75;;;17.30;53.40;;;;;;5073680;28;20097;-61
2023/09/28 07:42:41;;;;;;;18.98;2.90;;;17.20;55.90;;;;;;5075514;28;20044;-60
2023/09/28 07:45:08;;;;;;;20.73;3.47;;;17.30;55.20;;;;;;5075339;28;20037;-60
2023/09/28 07:47:34;;;;;;;21.83;3.45;;;17.40;53.10;;;;;;5075453;28;20037;-60
2023/09/28 07:50:00;;;;;;;22.20;3.72;;;17.40;58.30;;;;;;5075008;28;20109;-59
2023/09/28 07:52:26;;;;;;;21.73;3.75;;;17.40;56.90;;;;;;5075410;28;20417;-60
2023/09/28 07:54:51;;;;;;;21.65;4.07;;;17.50;59.70;;;;;;5074020;28;20102;-60
2023/09/28 07:57:17;;;;;;;25.20;4.78;;;17.50;55.80;;;;;;5075392;28;20033;-60
2023/09/28 07:59:43;;;;;;;26.23;4.00;;;17.60;56.60;;;;;;5073623;28;20048;-60
2023/09/28 08:02:09;;;;;;;16.38;3.67;;;17.70;54.40;;;;;;5073637;28;20043;-61
2023/09/28 08:04:38;;;;;;;21.98;3.78;;;17.80;50.60;;;;;;5073676;28;20166;-60
2023/09/28 08:07:04;;;;;;;24.08;4.82;;;17.90;47.90;;;;;;5074742;28;20513;-60
2023/09/28 08:09:32;;;;;;;23.67;3.63;;;17.90;37.50;;;;;;5074958;28;20083;-60
2023/09/28 08:11:58;;;;;;;17.98;3.30;;;17.90;39.00;;;;;;5074640;28;20089;-60
2023/09/28 08:14:24;;;;;;;22.00;3.88;;;17.90;24.70;;;;;;5074667;28;20044;-60
2023/09/28 08:16:50;;;;;;;17.92;3.45;;;17.90;18.40;;;;;;5074891;28;20031;-60
2023/09/28 08:19:16;;;;;;;20.90;4.22;;;17.90;19.30;;;;;;5074623;28;20066;-60
2023/09/28 08:21:42;;;;;;;15.75;3.08;;;18.00;13.20;;;;;;5074783;28;20047;-61
2023/09/28 08:24:10;;;;;;;16.42;3.35;;;18.00;9.70;;;;;;5074382;28;20132;-61
2023/09/28 08:26:36;;;;;;;20.40;3.95;;;18.00;7.10;;;;;;5074745;28;20045;-61
2023/09/28 08:29:03;;;;;;;16.58;3.00;;;18.10;12.10;;;;;;5074555;28;20393;-60
2023/09/28 08:31:32;;;;;;;16.00;3.40;;;18.20;1.00;;;;;;5074649;28;20044;-61
2023/09/28 08:33:59;;;;;;;18.02;3.50;;;18.30;2.10;;;;;;5074390;28;20058;-60
2023/09/28 08:36:29;;;;;;;16.75;3.28;;;18.40;5.40;;;;;;5074239;28;20519;-60
2023/09/28 08:38:55;;;;;;;15.63;3.40;;;18.40;1.00;;;;;;5073893;28;20041;-61
2023/09/28 08:41:53;;;;;;;19.70;3.17;;;18.40;1.00;;;;;;5074241;28;20060;-60
2023/09/28 08:44:24;;;;;;;33.85;4.70;;;18.50;1.00;;;;;;5073814;28;20056;-60
2023/09/28 08:46:57;;;;;;;17.55;3.10;;;18.50;1.00;;;;;;5074401;28;20392;-60
2023/09/28 08:49:26;;;;;;;14.07;2.85;;;18.50;1.00;;;;;;5074296;28;20051;-61
2023/09/28 08:51:54;;;;;;;18.30;3.08;;;18.60;1.00;;;;;;5074191;28;20044;-60
2023/09/28 08:54:22;;;;;;;14.60;3.25;;;18.60;1.00;;;;;;5072725;28;20051;-60
2023/09/28 08:56:49;;;;;;;13.40;2.60;;;18.70;1.00;;;;;;5074219;28;20400;-60
2023/09/28 08:59:19;;;;;;;17.83;3.20;;;18.70;1.00;;;;;;5074210;28;20133;-61
2023/09/28 09:01:47;;;;;;;16.83;3.35;;;18.80;1.00;;;;;;5073812;28;20043;-60
2023/09/28 09:04:12;;;;;;;14.55;2.90;;;18.90;1.00;;;;;;5073983;28;20036;-60
2023/09/28 09:06:40;;;;;;;17.70;3.05;;;18.80;1.00;;;;;;5074060;28;20063;-61
2023/09/28 09:09:06;;;;;;;17.45;2.88;;;18.80;1.00;;;;;;5073968;28;20067;-61
2023/09/28 09:11:33;;;;;;;14.52;2.85;;;18.80;1.00;;;;;;5072405;28;20044;-61
2023/09/28 09:14:00;;;;;;;19.23;2.88;;;18.80;1.00;;;;;;5073829;28;20447;-60
2023/09/28 09:16:27;;;;;;;15.20;2.75;;;18.70;1.00;;;;;;5073928;28;20452;-60
2023/09/28 09:18:55;;;;;;;18.70;3.67;;;18.70;1.00;;;;;;5073447;28;20048;-60
2023/09/28 09:21:24;;;;;;;17.33;3.17;;;18.70;1.00;;;;;;5073625;28;20037;-60
2023/09/28 09:24:03;;;;;;;19.65;3.08;;;18.70;1.00;;;;;;5073312;28;20405;-60
2023/09/28 09:26:46;;;;;;;19.38;3.22;;;18.70;1.00;;;;;;5073350;28;20576;-61
2023/09/28 09:29:14;;;;;;;21.33;3.35;;;18.70;1.00;;;;;;5073595;28;20119;-61
2023/09/28 09:31:41;;;;;;;17.52;2.63;;;18.70;1.00;;;;;;5073340;28;20040;-60
2023/09/28 09:34:11;;;;;;;15.10;3.10;;;18.60;1.00;;;;;;5071814;28;20564;-60
2023/09/28 09:36:38;;;;;;;12.65;2.60;;;18.70;1.00;;;;;;5071821;28;20102;-60
2023/09/28 09:39:03;;;;;;;14.80;2.78;;;18.70;1.00;;;;;;5073201;28;20037;-60
2023/09/28 09:41:29;;;;;;;16.23;2.83;;;18.70;1.00;;;;;;5071993;28;20097;-60
2023/09/28 09:43:57;;;;;;;19.85;3.70;;;18.70;1.00;;;;;;5073127;28;20037;-60
2023/09/28 09:46:25;;;;;;;22.52;4.43;;;18.70;1.00;;;;;;5073226;28;20040;-60
2023/09/28 09:48:52;;;;;;;16.73;2.80;;;18.80;1.00;;;;;;5071924;28;20396;-60
2023/09/28 09:51:19;;;;;;;21.23;3.03;;;18.90;1.00;;;;;;5072202;28;20094;-61
2023/09/28 09:53:46;;;;;;;20.13;3.28;;;19.00;1.00;;;;;;5073030;28;20090;-61
2023/09/28 09:56:13;;;;;;;17.35;3.47;;;18.90;1.00;;;;;;5072969;28;20036;-61
2023/09/28 09:58:49;;;;;;;18.63;3.25;;;19.00;1.00;;;;;;5072492;28;20037;-60
2023/09/28 10:01:19;;;;;;;18.30;2.75;;;19.00;1.00;;;;;;5071270;28;20505;-69
2023/09/28 10:03:52;;;;;;;12.07;2.53;;;19.00;1.00;;;;;;5072471;28;20048;-61
2023/09/28 10:06:21;;;;;;;14.80;2.70;;;19.00;1.00;;;;;;5072630;28;20090;-61
2023/09/28 10:08:49;;;;;;;21.15;3.92;;;19.10;1.00;;;;;;5072404;28;20492;-61
2023/09/28 10:11:16;;;;;;;16.83;2.70;;;19.00;1.00;;;;;;5071496;28;20044;-61
2023/09/28 10:13:43;;;;;;;14.88;2.63;;;19.00;1.00;;;;;;5071449;28;20042;-61
2023/09/28 10:16:15;;;;;;;14.50;2.65;;;19.10;1.00;;;;;;5072759;28;20056;-61
2023/09/28 10:18:46;;;;;;;12.27;2.85;;;19.10;1.00;;;;;;5071092;28;20101;-61
2023/09/28 10:21:14;;;;;;;14.05;2.50;;;19.10;1.00;;;;;;5072712;28;20036;-60
2023/09/28 10:23:40;;;;;;;13.27;3.00;;;19.10;1.00;;;;;;5072223;28;20099;-61
2023/09/28 10:26:12;;;;;;;14.48;2.95;;;19.00;1.00;;;;;;5072410;28;20072;-61
2023/09/28 10:29:01;;;;;;;14.32;2.97;;;19.10;1.00;;;;;;5072441;28;20560;-61
2023/09/28 10:31:35;;;;;;;14.88;2.45;;;19.10;1.00;;;;;;5072268;28;20041;-60
2023/09/28 10:34:03;;;;;;;17.05;2.80;;;19.10;1.00;;;;;;5072509;28;20048;-60
2023/09/28 10:36:30;;;;;;;15.30;2.28;;;19.10;1.00;;;;;;5072198;28;20076;-61
2023/09/28 10:39:16;;;;;;;12.45;3.28;;;18.90;1.00;;;;;;5072256;28;20139;-61
2023/09/28 10:41:49;;;;;;;13.10;2.50;;;18.90;1.00;;;;;;5072324;28;20044;-60
2023/09/28 10:44:17;;;;;;;17.58;2.88;;;18.90;1.00;;;;;;5072339;28;20405;-61
2023/09/28 10:46:45;;;;;;;13.40;2.80;;;18.90;1.00;;;;;;5071929;28;20045;-60
2023/09/28 10:49:28;;;;;;;11.75;2.20;;;18.90;1.00;;;;;;5072052;28;20052;-61
2023/09/28 10:51:56;;;;;;;18.80;3.33;;;18.90;1.00;;;;;;5072229;28;20044;-60
2023/09/28 10:54:26;;;;;;;16.10;2.83;;;18.90;1.00;;;;;;5070791;28;20052;-61
2023/09/28 10:56:52;;;;;;;17.23;3.10;;;18.90;1.00;;;;;;5072334;28;20048;-60
2023/09/28 10:59:19;;;;;;;13.23;3.15;;;18.80;1.00;;;;;;5071837;28;20036;-60
2023/09/28 11:01:47;;;;;;;13.60;2.45;;;18.80;1.00;;;;;;5072863;28;20058;-61
2023/09/28 11:04:13;;;;;;;16.63;2.55;;;18.80;1.00;;;;;;5076388;28;20098;-61
2023/09/28 11:06:41;;;;;;;17.30;3.20;;;18.90;1.00;;;;;;5076054;28;20036;-61
2023/09/28 11:09:09;;;;;;;11.70;2.58;;;18.90;1.00;;;;;;5076058;28;20052;-60
2023/09/28 11:11:37;;;;;;;14.50;2.63;;;18.90;1.00;;;;;;5075816;28;20098;-60
2023/09/28 11:14:05;;;;;;;14.93;3.35;;;18.90;1.00;;;;;;5074554;28;20045;-61
2023/09/28 11:16:33;;;;;;;21.33;3.88;;;18.90;1.00;;;;;;5074487;28;20481;-60
2023/09/28 11:18:59;;;;;;;18.08;3.30;;;18.90;1.00;;;;;;5075691;28;20480;-61
2023/09/28 11:21:26;;;;;;;14.43;2.90;;;18.80;1.00;;;;;;5075819;28;20116;-60
2023/09/28 11:23:52;;;;;;;16.52;2.90;;;18.80;1.00;;;;;;5074374;28;20127;-61
2023/09/28 11:26:19;;;;;;;13.00;2.47;;;18.80;1.00;;;;;;5075938;28;20037;-61
2023/09/28 11:28:45;;;;;;;13.85;3.05;;;18.80;1.00;;;;;;5075632;28;20044;-61
2023/09/28 11:31:13;;;;;;;13.88;3.10;;;18.80;1.00;;;;;;5075838;28;20047;-61
2023/09/28 11:33:40;;;;;;;16.38;3.33;;;18.70;1.00;;;;;;5075606;28;20055;-61
2023/09/28 11:36:07;;;;;;;14.98;3.05;;;18.70;1.00;;;;;;5075522;28;20544;-61
2023/09/28 11:38:33;;;;;;;16.35;3.50;;;18.70;1.00;;;;;;5075458;28;20045;-61
2023/09/28 11:41:02;;;;;;;13.85;3.10;;;18.70;1.00;;;;;;5075400;28;20048;-61
2023/09/28 11:43:32;;;;;;;23.63;3.80;;;18.80;1.00;;;;;;5075460;28;20361;-61
2023/09/28 11:45:59;;;;;;;18.80;3.40;;;18.80;1.00;;;;;;5075502;28;20466;-60
2023/09/28 11:48:25;;;;;;;18.02;3.28;;;18.80;1.00;;;;;;5075556;28;20063;-60
2023/09/28 11:50:50;;;;;;;16.05;3.00;;;18.70;1.00;;;;;;5073907;28;20091;-59
2023/09/28 11:53:16;;;;;;;15.82;3.53;;;18.70;1.00;;;;;;5074207;28;20044;-61
2023/09/28 11:55:45;;;;;;;17.67;2.92;;;18.70;1.00;;;;;;5075377;28;20381;-61
2023/09/28 11:58:11;;;;;;;16.65;3.13;;;18.80;1.00;;;;;;5074983;28;20055;-61
2023/09/28 12:00:37;;;;;;;17.15;2.92;;;19.00;1.00;;;;;;5073686;28;20071;-61
2023/09/28 12:03:06;;;;;;;14.57;3.50;;;19.10;1.00;;;;;;5075137;28;20165;-61
2023/09/28 12:05:31;;;;;;;12.88;2.80;;;19.10;1.00;;;;;;5074999;28;20182;-61
2023/09/28 12:07:58;;;;;;;19.83;3.08;;;19.10;1.00;;;;;;5074807;28;20119;-61
2023/09/28 12:10:24;;;;;;;16.00;3.58;;;19.20;1.00;;;;;;5073495;28;20051;-61
2023/09/28 12:12:49;;;;;;;13.10;2.63;;;19.20;1.00;;;;;;5074320;28;20029;-61
2023/09/28 12:15:16;;;;;;;18.17;3.58;;;19.10;1.00;;;;;;5074650;28;20055;-61
2023/09/28 12:17:43;;;;;;;13.98;2.97;;;19.00;1.00;;;;;;5074782;28;20037;-60
2023/09/28 12:20:12;;;;;;;16.80;3.17;;;19.00;1.00;;;;;;5074859;28;20427;-61
2023/09/28 12:22:39;;;;;;;16.40;3.30;;;18.90;1.00;;;;;;5074636;28;20037;-60
2023/09/28 12:25:05;;;;;;;24.55;4.35;;;18.90;1.00;;;;;;5074469;28;20056;-61
2023/09/28 12:27:37;;;;;;;14.73;3.35;;;18.90;1.00;;;;;;5074722;28;20123;-60
2023/09/28 12:30:04;;;;;;;15.07;3.28;;;19.00;1.00;;;;;;5074530;28;20050;-60
2023/09/28 12:32:31;;;;;;;19.88;4.07;;;19.00;1.00;;;;;;5073189;28;20040;-61
2023/09/28 12:34:57;;;;;;;18.70;3.17;;;18.90;1.00;;;;;;5074625;28;20080;-60
2023/09/28 12:37:23;;;;;;;15.45;3.10;;;18.90;1.00;;;;;;5074453;28;20037;-61
2023/09/28 12:39:50;;;;;;;16.20;3.30;;;18.90;1.00;;;;;;5074195;28;20080;-61